sensor_id;sensor_type;location;lat;lon;timestamp;pressure;altitude;pressure_sealevel;temperature;humidity
42007;BME280;27696;42.704;23.304;2022-09-09T00:02:18;95470.78;;;31.96;29.39
42007;BME280;27696;42.704;23.304;2022-09-09T00:04:58;95469.78;;;31.05;31.07
42007;BME280;27696;42.704;23.304;2022-09-09T00:07:48;95463.56;;;31.12;31.01
42007;BME280;27696;42.704;23.304;2022-09-09T00:10:39;95462.88;;;31.19;30.26
42007;BME280;27696;42.704;23.304;2022-09-09T00:15:40;95462.97;;;31.43;30.17
42007;BME280;27696;42.704;23.304;2022-09-09T00:18:24;95454.53;;;30.91;30.70
42007;BME280;27696;42.704;23.304;2022-09-09T00:23:34;95444.16;;;30.91;30.88
42007;BME280;27696;42.704;23.304;2022-09-09T00:28:33;95424.69;;;30.54;31.54
42007;BME280;27696;42.704;23.304;2022-09-09T00:31:13;95434.16;;;30.59;31.49
42007;BME280;27696;42.704;23.304;2022-09-09T00:33:40;95422.59;;;30.05;32.05
42007;BME280;27696;42.704;23.304;2022-09-09T00:36:13;95433.53;;;31.03;30.94
42007;BME280;27696;42.704;23.304;2022-09-09T00:38:46;95420.13;;;30.86;30.84
42007;BME280;27696;42.704;23.304;2022-09-09T00:41:21;95424.56;;;30.39;31.58
42007;BME280;27696;42.704;23.304;2022-09-09T00:44:00;95420.91;;;30.44;31.78
42007;BME280;27696;42.704;23.304;2022-09-09T00:49:40;95424.69;;;30.54;31.93
42007;BME280;27696;42.704;23.304;2022-09-09T00:52:23;95436.59;;;31.21;30.93
42007;BME280;27696;42.704;23.304;2022-09-09T00:57:33;95424.56;;;30.89;31.49
42007;BME280;27696;42.704;23.304;2022-09-09T01:08:02;95428.75;;;30.53;32.01
42007;BME280;27696;42.704;23.304;2022-09-09T01:10:54;95430.56;;;31.01;30.89
42007;BME280;27696;42.704;23.304;2022-09-09T01:13:25;95429.31;;;30.81;31.48
42007;BME280;27696;42.704;23.304;2022-09-09T01:15:51;95431.91;;;30.36;31.69
42007;BME280;27696;42.704;23.304;2022-09-09T01:18:21;95437.59;;;31.02;30.72
42007;BME280;27696;42.704;23.304;2022-09-09T01:24:13;95428.38;;;31.07;30.27
42007;BME280;27696;42.704;23.304;2022-09-09T01:26:44;95420.75;;;30.71;31.05
42007;BME280;27696;42.704;23.304;2022-09-09T01:29:15;95417.97;;;30.50;31.80
42007;BME280;27696;42.704;23.304;2022-09-09T01:34:24;95431.84;;;30.71;31.57
42007;BME280;27696;42.704;23.304;2022-09-09T01:37:02;95440.34;;;30.31;32.09
42007;BME280;27696;42.704;23.304;2022-09-09T01:39:30;95443.41;;;30.40;31.82
42007;BME280;27696;42.704;23.304;2022-09-09T01:41:56;95446.03;;;30.46;31.92
42007;BME280;27696;42.704;23.304;2022-09-09T01:44:22;95446.38;;;30.21;32.16
42007;BME280;27696;42.704;23.304;2022-09-09T01:46:48;95439.56;;;30.22;32.14
42007;BME280;27696;42.704;23.304;2022-09-09T01:49:13;95441.97;;;30.05;32.14
42007;BME280;27696;42.704;23.304;2022-09-09T01:51:40;95451.09;;;30.13;32.53
42007;BME280;27696;42.704;23.304;2022-09-09T01:54:07;95448.88;;;30.11;32.00
42007;BME280;27696;42.704;23.304;2022-09-09T01:59:24;95451.06;;;30.69;30.77
42007;BME280;27696;42.704;23.304;2022-09-09T02:04:37;95445.75;;;29.80;32.49
42007;BME280;27696;42.704;23.304;2022-09-09T02:07:22;95435.44;;;30.16;32.02
42007;BME280;27696;42.704;23.304;2022-09-09T02:12:43;95428.97;;;30.55;31.26
42007;BME280;27696;42.704;23.304;2022-09-09T02:15:18;95426.31;;;30.71;31.20
42007;BME280;27696;42.704;23.304;2022-09-09T02:17:49;95420.16;;;30.01;32.30
42007;BME280;27696;42.704;23.304;2022-09-09T02:20:18;95424.41;;;30.23;32.08
42007;BME280;27696;42.704;23.304;2022-09-09T02:22:45;95425.16;;;30.03;32.01
42007;BME280;27696;42.704;23.304;2022-09-09T02:25:15;95434.19;;;30.03;32.34
42007;BME280;27696;42.704;23.304;2022-09-09T02:27:43;95438.22;;;30.37;31.98
42007;BME280;27696;42.704;23.304;2022-09-09T02:30:11;95429.53;;;29.98;32.26
42007;BME280;27696;42.704;23.304;2022-09-09T02:32:38;95442.03;;;29.78;32.42
42007;BME280;27696;42.704;23.304;2022-09-09T02:35:09;95430.63;;;29.33;33.17
42007;BME280;27696;42.704;23.304;2022-09-09T02:37:39;95442.69;;;29.71;32.74
42007;BME280;27696;42.704;23.304;2022-09-09T02:40:06;95455.94;;;29.11;34.01
42007;BME280;27696;42.704;23.304;2022-09-09T02:42:38;95449.88;;;30.01;32.43
42007;BME280;27696;42.704;23.304;2022-09-09T02:45:05;95451.38;;;29.40;33.25
42007;BME280;27696;42.704;23.304;2022-09-09T02:47:37;95451.94;;;29.73;32.82
42007;BME280;27696;42.704;23.304;2022-09-09T02:50:15;95443.53;;;29.79;32.17
42007;BME280;27696;42.704;23.304;2022-09-09T02:52:54;95448.09;;;29.90;32.43
42007;BME280;27696;42.704;23.304;2022-09-09T02:57:56;95450.53;;;29.45;32.69
42007;BME280;27696;42.704;23.304;2022-09-09T03:00:26;95451.78;;;29.31;32.97
42007;BME280;27696;42.704;23.304;2022-09-09T03:02:52;95457.44;;;29.25;32.93
42007;BME280;27696;42.704;23.304;2022-09-09T03:05:19;95445.75;;;29.19;32.90
42007;BME280;27696;42.704;23.304;2022-09-09T03:07:45;95463.19;;;29.27;32.67
42007;BME280;27696;42.704;23.304;2022-09-09T03:10:10;95452.22;;;28.81;33.25
42007;BME280;27696;42.704;23.304;2022-09-09T03:12:36;95456.16;;;29.13;33.06
42007;BME280;27696;42.704;23.304;2022-09-09T03:15:01;95456.25;;;28.80;33.98
42007;BME280;27696;42.704;23.304;2022-09-09T03:17:27;95448.28;;;29.17;33.08
42007;BME280;27696;42.704;23.304;2022-09-09T03:19:53;95452.31;;;29.29;32.91
42007;BME280;27696;42.704;23.304;2022-09-09T03:22:20;95444.22;;;28.91;33.61
42007;BME280;27696;42.704;23.304;2022-09-09T03:24:46;95427.34;;;28.81;33.67
42007;BME280;27696;42.704;23.304;2022-09-09T03:27:12;95441.88;;;28.82;33.75
42007;BME280;27696;42.704;23.304;2022-09-09T03:29:39;95447.00;;;29.45;33.08
42007;BME280;27696;42.704;23.304;2022-09-09T03:32:05;95446.38;;;29.52;32.27
42007;BME280;27696;42.704;23.304;2022-09-09T03:34:30;95439.56;;;29.26;32.38
42007;BME280;27696;42.704;23.304;2022-09-09T03:36:56;95445.75;;;29.06;33.00
42007;BME280;27696;42.704;23.304;2022-09-09T03:39:22;95449.97;;;28.80;33.77
42007;BME280;27696;42.704;23.304;2022-09-09T03:41:47;95440.84;;;28.98;33.52
42007;BME280;27696;42.704;23.304;2022-09-09T03:44:14;95436.59;;;28.97;33.48
42007;BME280;27696;42.704;23.304;2022-09-09T03:46:39;95448.94;;;29.37;33.11
42007;BME280;27696;42.704;23.304;2022-09-09T03:49:05;95452.97;;;29.09;33.07
42007;BME280;27696;42.704;23.304;2022-09-09T03:51:30;95448.94;;;29.10;33.11
42007;BME280;27696;42.704;23.304;2022-09-09T03:53:56;95443.16;;;29.21;33.02
42007;BME280;27696;42.704;23.304;2022-09-09T03:56:23;95440.19;;;28.92;33.40
42007;BME280;27696;42.704;23.304;2022-09-09T03:58:49;95459.56;;;28.92;33.69
42007;BME280;27696;42.704;23.304;2022-09-09T04:01:15;95455.72;;;29.22;32.80
42007;BME280;27696;42.704;23.304;2022-09-09T04:03:43;95458.47;;;29.22;32.87
42007;BME280;27696;42.704;23.304;2022-09-09T04:06:11;95454.25;;;29.48;32.62
42007;BME280;27696;42.704;23.304;2022-09-09T04:08:39;95457.41;;;28.71;34.31
42007;BME280;27696;42.704;23.304;2022-09-09T04:11:05;95457.84;;;28.89;33.88
42007;BME280;27696;42.704;23.304;2022-09-09T04:13:33;95457.44;;;29.39;32.97
42007;BME280;27696;42.704;23.304;2022-09-09T04:16:00;95450.63;;;29.26;33.27
42007;BME280;27696;42.704;23.304;2022-09-09T04:18:26;95450.41;;;28.97;33.63
42007;BME280;27696;42.704;23.304;2022-09-09T04:20:54;95462.34;;;29.19;33.54
42007;BME280;27696;42.704;23.304;2022-09-09T04:23:21;95455.06;;;28.89;33.61
42007;BME280;27696;42.704;23.304;2022-09-09T04:25:48;95448.94;;;29.37;33.14
42007;BME280;27696;42.704;23.304;2022-09-09T04:28:18;95461.69;;;29.53;32.77
42007;BME280;27696;42.704;23.304;2022-09-09T04:30:45;95457.84;;;29.16;33.02
42007;BME280;27696;42.704;23.304;2022-09-09T04:33:11;95456.34;;;29.55;32.62
42007;BME280;27696;42.704;23.304;2022-09-09T04:35:37;95454.84;;;29.68;32.24
42007;BME280;27696;42.704;23.304;2022-09-09T04:38:03;95461.38;;;29.57;32.50
42007;BME280;27696;42.704;23.304;2022-09-09T04:40:29;95451.97;;;29.60;32.55
42007;BME280;27696;42.704;23.304;2022-09-09T04:42:59;95463.94;;;29.89;31.67
42007;BME280;27696;42.704;23.304;2022-09-09T04:45:25;95463.16;;;29.54;32.18
42007;BME280;27696;42.704;23.304;2022-09-09T04:47:51;95455.84;;;29.91;31.57
42007;BME280;27696;42.704;23.304;2022-09-09T04:50:17;95462.41;;;30.15;31.30
42007;BME280;27696;42.704;23.304;2022-09-09T04:52:44;95454.34;;;29.90;31.67
42007;BME280;27696;42.704;23.304;2022-09-09T04:55:09;95451.00;;;29.71;32.08
42007;BME280;27696;42.704;23.304;2022-09-09T04:57:35;95450.28;;;29.30;32.92
42007;BME280;27696;42.704;23.304;2022-09-09T05:00:00;95445.34;;;29.76;32.14
42007;BME280;27696;42.704;23.304;2022-09-09T05:02:26;95449.88;;;29.87;31.94
42007;BME280;27696;42.704;23.304;2022-09-09T05:04:52;95453.31;;;29.93;31.76
42007;BME280;27696;42.704;23.304;2022-09-09T05:07:17;95424.41;;;29.54;32.23
42007;BME280;27696;42.704;23.304;2022-09-09T05:09:44;95416.03;;;29.94;31.77
42007;BME280;27696;42.704;23.304;2022-09-09T05:12:10;95440.00;;;29.30;33.00
42007;BME280;27696;42.704;23.304;2022-09-09T05:14:36;95436.16;;;29.81;32.18
42007;BME280;27696;42.704;23.304;2022-09-09T05:17:04;95447.31;;;30.03;32.42
42007;BME280;27696;42.704;23.304;2022-09-09T05:19:29;95440.56;;;30.11;31.42
42007;BME280;27696;42.704;23.304;2022-09-09T05:21:55;95406.59;;;29.76;31.82
42007;BME280;27696;42.704;23.304;2022-09-09T05:24:21;95424.03;;;28.83;33.43
42007;BME280;27696;42.704;23.304;2022-09-09T05:26:48;95436.69;;;29.45;32.53
42007;BME280;27696;42.704;23.304;2022-09-09T05:29:14;95424.41;;;29.54;32.66
42007;BME280;27696;42.704;23.304;2022-09-09T05:31:39;95435.72;;;29.43;33.03
42007;BME280;27696;42.704;23.304;2022-09-09T05:34:04;95438.53;;;30.12;31.60
42007;BME280;27696;42.704;23.304;2022-09-09T05:36:30;95433.75;;;29.64;32.12
42007;BME280;27696;42.704;23.304;2022-09-09T05:38:55;95408.81;;;29.78;31.73
42007;BME280;27696;42.704;23.304;2022-09-09T05:41:21;95435.72;;;30.25;31.19
42007;BME280;27696;42.704;23.304;2022-09-09T05:43:48;95438.41;;;30.81;30.35
42007;BME280;27696;42.704;23.304;2022-09-09T05:46:22;95443.19;;;31.39;29.88
42007;BME280;27696;42.704;23.304;2022-09-09T05:48:48;95439.28;;;30.76;30.70
42007;BME280;27696;42.704;23.304;2022-09-09T05:51:20;95435.41;;;30.79;30.71
42007;BME280;27696;42.704;23.304;2022-09-09T05:53:47;95436.41;;;30.90;30.20
42007;BME280;27696;42.704;23.304;2022-09-09T05:56:17;95446.56;;;30.87;30.00
42007;BME280;27696;42.704;23.304;2022-09-09T05:58:44;95453.75;;;30.82;30.29
42007;BME280;27696;42.704;23.304;2022-09-09T06:01:16;95421.56;;;31.53;28.80
42007;BME280;27696;42.704;23.304;2022-09-09T06:03:43;95458.81;;;31.21;29.12
42007;BME280;27696;42.704;23.304;2022-09-09T06:06:11;95457.16;;;30.96;30.02
42007;BME280;27696;42.704;23.304;2022-09-09T06:08:39;95463.25;;;32.13;28.43
42007;BME280;27696;42.704;23.304;2022-09-09T06:11:08;95462.53;;;31.68;28.82
42007;BME280;27696;42.704;23.304;2022-09-09T06:13:34;95454.38;;;30.96;29.75
42007;BME280;27696;42.704;23.304;2022-09-09T06:16:01;95458.53;;;30.82;30.04
42007;BME280;27696;42.704;23.304;2022-09-09T06:18:26;95458.25;;;31.22;29.46
42007;BME280;27696;42.704;23.304;2022-09-09T06:20:59;95457.22;;;32.61;27.56
42007;BME280;27696;42.704;23.304;2022-09-09T06:23:26;95453.19;;;31.94;28.32
42007;BME280;27696;42.704;23.304;2022-09-09T06:25:59;95454.81;;;31.37;28.66
42007;BME280;27696;42.704;23.304;2022-09-09T06:28:25;95463.50;;;31.04;29.35
42007;BME280;27696;42.704;23.304;2022-09-09T06:30:57;95467.97;;;32.72;27.50
42007;BME280;27696;42.704;23.304;2022-09-09T06:33:23;95458.38;;;31.98;28.57
42007;BME280;27696;42.704;23.304;2022-09-09T06:35:52;95449.44;;;31.76;29.35
42007;BME280;27696;42.704;23.304;2022-09-09T06:38:18;95449.53;;;31.99;28.76
42007;BME280;27696;42.704;23.304;2022-09-09T06:40:53;95440.84;;;33.19;27.55
42007;BME280;27696;42.704;23.304;2022-09-09T06:43:23;95443.25;;;32.22;28.78
42007;BME280;27696;42.704;23.304;2022-09-09T06:46:03;95439.59;;;32.58;28.35
42007;BME280;27696;42.704;23.304;2022-09-09T06:48:29;95441.44;;;32.48;28.44
42007;BME280;27696;42.704;23.304;2022-09-09T06:51:03;95447.56;;;32.93;27.62
42007;BME280;27696;42.704;23.304;2022-09-09T06:53:29;95459.25;;;32.45;27.85
42007;BME280;27696;42.704;23.304;2022-09-09T06:55:55;95452.69;;;31.22;28.56
42007;BME280;27696;42.704;23.304;2022-09-09T06:58:20;95464.44;;;32.71;26.68
42007;BME280;27696;42.704;23.304;2022-09-09T07:00:47;95460.72;;;32.46;27.11
42007;BME280;27696;42.704;23.304;2022-09-09T07:03:13;95453.69;;;32.76;27.05
42007;BME280;27696;42.704;23.304;2022-09-09T07:05:38;95461.28;;;32.60;26.27
42007;BME280;27696;42.704;23.304;2022-09-09T07:08:04;95459.25;;;32.91;26.56
42007;BME280;27696;42.704;23.304;2022-09-09T07:10:29;95461.09;;;32.57;27.27
42007;BME280;27696;42.704;23.304;2022-09-09T07:12:55;95449.91;;;33.27;26.04
42007;BME280;27696;42.704;23.304;2022-09-09T07:15:20;95446.56;;;33.77;25.28
42007;BME280;27696;42.704;23.304;2022-09-09T07:17:48;95432.56;;;32.49;26.49
42007;BME280;27696;42.704;23.304;2022-09-09T07:20:14;95434.75;;;32.97;26.13
42007;BME280;27696;42.704;23.304;2022-09-09T07:22:40;95443.66;;;34.34;23.78
42007;BME280;27696;42.704;23.304;2022-09-09T07:25:06;95444.69;;;34.21;24.75
42007;BME280;27696;42.704;23.304;2022-09-09T07:27:32;95444.19;;;33.74;24.92
42007;BME280;27696;42.704;23.304;2022-09-09T07:29:57;95443.69;;;34.01;24.92
42007;BME280;27696;42.704;23.304;2022-09-09T07:32:23;95439.44;;;34.50;23.46
42007;BME280;27696;42.704;23.304;2022-09-09T07:34:48;95434.81;;;33.94;25.09
42007;BME280;27696;42.704;23.304;2022-09-09T07:37:15;95435.69;;;34.05;24.70
42007;BME280;27696;42.704;23.304;2022-09-09T07:39:41;95417.03;;;34.15;24.65
42007;BME280;27696;42.704;23.304;2022-09-09T07:42:07;95440.00;;;34.74;23.75
42007;BME280;27696;42.704;23.304;2022-09-09T07:44:34;95440.19;;;34.25;24.86
42007;BME280;27696;42.704;23.304;2022-09-09T07:47:02;95438.28;;;35.22;23.90
42007;BME280;27696;42.704;23.304;2022-09-09T07:49:28;95450.31;;;34.64;24.28
42007;BME280;27696;42.704;23.304;2022-09-09T07:51:53;95448.59;;;35.29;23.88
42007;BME280;27696;42.704;23.304;2022-09-09T07:54:20;95449.38;;;36.19;22.92
42007;BME280;27696;42.704;23.304;2022-09-09T07:56:48;95445.75;;;35.82;23.63
42007;BME280;27696;42.704;23.304;2022-09-09T07:59:15;95436.75;;;35.73;23.02
42007;BME280;27696;42.704;23.304;2022-09-09T08:01:46;95442.19;;;36.26;22.50
42007;BME280;27696;42.704;23.304;2022-09-09T08:04:17;95427.59;;;36.18;22.39
42007;BME280;27696;42.704;23.304;2022-09-09T08:06:48;95434.94;;;36.13;22.60
42007;BME280;27696;42.704;23.304;2022-09-09T08:09:15;95438.41;;;35.41;23.70
42007;BME280;27696;42.704;23.304;2022-09-09T08:11:41;95441.00;;;34.69;24.39
42007;BME280;27696;42.704;23.304;2022-09-09T08:14:09;95436.59;;;36.26;22.69
42007;BME280;27696;42.704;23.304;2022-09-09T08:16:37;95442.59;;;37.16;21.78
42007;BME280;27696;42.704;23.304;2022-09-09T08:19:04;95435.75;;;36.33;22.26
42007;BME280;27696;42.704;23.304;2022-09-09T08:21:32;95437.38;;;36.74;22.14
42007;BME280;27696;42.704;23.304;2022-09-09T08:23:59;95436.84;;;37.24;21.48
42007;BME280;27696;42.704;23.304;2022-09-09T08:26:37;95434.69;;;38.76;19.80
42007;BME280;27696;42.704;23.304;2022-09-09T08:29:04;95433.91;;;37.22;22.55
42007;BME280;27696;42.704;23.304;2022-09-09T08:31:38;95432.50;;;36.74;22.47
42007;BME280;27696;42.704;23.304;2022-09-09T08:34:05;95425.59;;;36.85;22.25
42007;BME280;27696;42.704;23.304;2022-09-09T08:36:33;95424.03;;;37.51;21.87
42007;BME280;27696;42.704;23.304;2022-09-09T08:38:59;95426.53;;;37.37;21.86
42007;BME280;27696;42.704;23.304;2022-09-09T08:44:17;95421.44;;;38.04;21.62
42007;BME280;27696;42.704;23.304;2022-09-09T08:53:04;95404.09;;;38.59;20.61
42007;BME280;27696;42.704;23.304;2022-09-09T08:55:47;95416.34;;;37.61;21.63
42007;BME280;27696;42.704;23.304;2022-09-09T09:09:01;95416.66;;;38.79;20.82
42007;BME280;27696;42.704;23.304;2022-09-09T09:11:35;95407.94;;;37.31;21.33
42007;BME280;27696;42.704;23.304;2022-09-09T09:14:24;95406.91;;;39.24;19.95
42007;BME280;27696;42.704;23.304;2022-09-09T09:16:54;95410.06;;;38.43;20.92
42007;BME280;27696;42.704;23.304;2022-09-09T09:19:22;95406.25;;;37.97;21.69
42007;BME280;27696;42.704;23.304;2022-09-09T09:22:10;95409.16;;;39.15;20.29
42007;BME280;27696;42.704;23.304;2022-09-09T09:30:29;95398.69;;;38.73;21.15
42007;BME280;27696;42.704;23.304;2022-09-09T09:33:23;95407.44;;;39.32;20.87
42007;BME280;27696;42.704;23.304;2022-09-09T09:35:49;95406.19;;;39.57;20.14
42007;BME280;27696;42.704;23.304;2022-09-09T09:38:23;95410.56;;;39.93;19.57
42007;BME280;27696;42.704;23.304;2022-09-09T09:40:59;95392.94;;;39.47;20.28
42007;BME280;27696;42.704;23.304;2022-09-09T09:43:33;95392.50;;;39.63;19.76
42007;BME280;27696;42.704;23.304;2022-09-09T09:45:59;95392.38;;;38.31;21.33
42007;BME280;27696;42.704;23.304;2022-09-09T09:48:26;95379.00;;;39.16;20.94
42007;BME280;27696;42.704;23.304;2022-09-09T09:50:57;95383.50;;;38.66;20.63
42007;BME280;27696;42.704;23.304;2022-09-09T09:53:34;95389.72;;;38.43;21.56
42007;BME280;27696;42.704;23.304;2022-09-09T09:56:04;95370.41;;;39.02;20.63
42007;BME280;27696;42.704;23.304;2022-09-09T09:58:33;95373.78;;;38.89;20.49
42007;BME280;27696;42.704;23.304;2022-09-09T10:01:04;95370.75;;;38.75;20.66
42007;BME280;27696;42.704;23.304;2022-09-09T10:03:30;95367.59;;;38.37;21.22
42007;BME280;27696;42.704;23.304;2022-09-09T10:05:56;95368.13;;;38.67;20.84
42007;BME280;27696;42.704;23.304;2022-09-09T10:08:24;95381.84;;;38.94;21.00
42007;BME280;27696;42.704;23.304;2022-09-09T10:19:35;95391.09;;;38.85;21.21
42007;BME280;27696;42.704;23.304;2022-09-09T10:35:39;95387.56;;;39.97;19.74
42007;BME280;27696;42.704;23.304;2022-09-09T10:38:17;95397.88;;;40.16;19.37
42007;BME280;27696;42.704;23.304;2022-09-09T10:56:23;95405.59;;;37.57;21.92
42007;BME280;27696;42.704;23.304;2022-09-09T10:58:54;95400.38;;;38.56;20.85
42007;BME280;27696;42.704;23.304;2022-09-09T11:01:56;95401.53;;;38.00;21.38
42007;BME280;27696;42.704;23.304;2022-09-09T11:04:27;95406.97;;;38.70;20.98
42007;BME280;27696;42.704;23.304;2022-09-09T11:06:58;95404.94;;;38.93;20.68
42007;BME280;27696;42.704;23.304;2022-09-09T11:09:33;95403.44;;;38.38;21.46
42007;BME280;27696;42.704;23.304;2022-09-09T11:12:02;95386.38;;;37.63;22.62
42007;BME280;27696;42.704;23.304;2022-09-09T11:17:10;95383.41;;;38.22;21.70
42007;BME280;27696;42.704;23.304;2022-09-09T11:19:42;95382.22;;;38.79;21.56
42007;BME280;27696;42.704;23.304;2022-09-09T11:24:47;95387.03;;;38.66;21.65
42007;BME280;27696;42.704;23.304;2022-09-09T11:27:17;95382.69;;;38.75;21.33
42007;BME280;27696;42.704;23.304;2022-09-09T11:38:27;95342.59;;;40.21;20.22
42007;BME280;27696;42.704;23.304;2022-09-09T11:40:59;95328.84;;;38.89;21.62
42007;BME280;27696;42.704;23.304;2022-09-09T11:43:31;95326.13;;;37.43;23.05
42007;BME280;27696;42.704;23.304;2022-09-09T11:46:01;95326.19;;;38.47;22.39
42007;BME280;27696;42.704;23.304;2022-09-09T11:48:42;95316.69;;;39.41;21.06
42007;BME280;27696;42.704;23.304;2022-09-09T11:53:54;95305.38;;;39.17;22.22
42007;BME280;27696;42.704;23.304;2022-09-09T11:56:44;95307.09;;;39.92;21.30
42007;BME280;27696;42.704;23.304;2022-09-09T11:59:37;95312.63;;;40.75;19.79
42007;BME280;27696;42.704;23.304;2022-09-09T12:02:16;95316.88;;;40.38;20.54
42007;BME280;27696;42.704;23.304;2022-09-09T12:04:53;95311.03;;;39.87;21.21
42007;BME280;27696;42.704;23.304;2022-09-09T12:12:34;95292.47;;;41.44;19.55
42007;BME280;27696;42.704;23.304;2022-09-09T12:17:31;95291.94;;;39.16;22.23
42007;BME280;27696;42.704;23.304;2022-09-09T12:34:32;95268.69;;;41.08;20.97
42007;BME280;27696;42.704;23.304;2022-09-09T12:40:18;95264.31;;;40.17;21.73
42007;BME280;27696;42.704;23.304;2022-09-09T12:42:44;95259.66;;;40.10;21.96
42007;BME280;27696;42.704;23.304;2022-09-09T12:45:21;95261.91;;;41.13;20.86
42007;BME280;27696;42.704;23.304;2022-09-09T12:47:59;95257.69;;;41.00;21.02
42007;BME280;27696;42.704;23.304;2022-09-09T12:50:49;95254.50;;;40.30;21.64
42007;BME280;27696;42.704;23.304;2022-09-09T12:53:28;95240.16;;;40.76;21.41
42007;BME280;27696;42.704;23.304;2022-09-09T12:56:05;95245.50;;;41.35;21.00
42007;BME280;27696;42.704;23.304;2022-09-09T12:58:33;95241.06;;;40.17;21.70
42007;BME280;27696;42.704;23.304;2022-09-09T13:01:00;95253.06;;;41.19;20.87
42007;BME280;27696;42.704;23.304;2022-09-09T13:03:28;95253.34;;;40.85;20.88
42007;BME280;27696;42.704;23.304;2022-09-09T13:05:58;95254.91;;;40.88;20.66
42007;BME280;27696;42.704;23.304;2022-09-09T13:08:25;95267.72;;;40.16;20.94
42007;BME280;27696;42.704;23.304;2022-09-09T13:10:57;95252.50;;;39.26;21.75
42007;BME280;27696;42.704;23.304;2022-09-09T13:15:59;95247.75;;;40.35;20.73
42007;BME280;27696;42.704;23.304;2022-09-09T13:18:39;95242.09;;;39.86;21.54
42007;BME280;27696;42.704;23.304;2022-09-09T13:21:06;95232.00;;;39.23;21.89
42007;BME280;27696;42.704;23.304;2022-09-09T13:23:34;95219.56;;;39.26;22.18
42007;BME280;27696;42.704;23.304;2022-09-09T13:26:04;95227.16;;;40.45;21.04
42007;BME280;27696;42.704;23.304;2022-09-09T13:28:31;95218.06;;;39.13;22.33
42007;BME280;27696;42.704;23.304;2022-09-09T13:31:02;95219.13;;;39.77;21.84
42007;BME280;27696;42.704;23.304;2022-09-09T13:35:59;95213.72;;;39.70;21.55
42007;BME280;27696;42.704;23.304;2022-09-09T13:38:28;95216.03;;;40.47;21.02
42007;BME280;27696;42.704;23.304;2022-09-09T13:43:26;95210.44;;;39.73;21.49
42007;BME280;27696;42.704;23.304;2022-09-09T13:45:57;95183.78;;;41.27;20.14
42007;BME280;27696;42.704;23.304;2022-09-09T13:48:24;95192.63;;;40.18;21.11
42007;BME280;27696;42.704;23.304;2022-09-09T13:51:01;95176.81;;;41.98;19.71
42007;BME280;27696;42.704;23.304;2022-09-09T13:53:28;95198.69;;;41.16;20.15
42007;BME280;27696;42.704;23.304;2022-09-09T13:55:54;95206.28;;;40.74;20.67
42007;BME280;27696;42.704;23.304;2022-09-09T13:58:19;95200.53;;;41.51;19.65
42007;BME280;27696;42.704;23.304;2022-09-09T14:00:45;95192.81;;;41.66;18.55
42007;BME280;27696;42.704;23.304;2022-09-09T14:03:11;95192.16;;;42.53;17.57
42007;BME280;27696;42.704;23.304;2022-09-09T14:05:37;95190.25;;;41.30;18.99
42007;BME280;27696;42.704;23.304;2022-09-09T14:08:07;95194.53;;;42.89;17.72
42007;BME280;27696;42.704;23.304;2022-09-09T14:10:33;95187.56;;;41.46;18.62
42007;BME280;27696;42.704;23.304;2022-09-09T14:13:02;95183.81;;;41.83;18.60
42007;BME280;27696;42.704;23.304;2022-09-09T14:15:27;95184.53;;;42.12;18.48
42007;BME280;27696;42.704;23.304;2022-09-09T14:17:54;95183.91;;;42.13;18.75
42007;BME280;27696;42.704;23.304;2022-09-09T14:20:21;95180.97;;;42.85;18.33
42007;BME280;27696;42.704;23.304;2022-09-09T14:22:47;95176.13;;;42.28;18.97
42007;BME280;27696;42.704;23.304;2022-09-09T14:25:12;95169.28;;;42.93;17.96
42007;BME280;27696;42.704;23.304;2022-09-09T14:27:41;95122.50;;;41.28;18.79
42007;BME280;27696;42.704;23.304;2022-09-09T14:30:08;95173.25;;;41.28;19.68
42007;BME280;27696;42.704;23.304;2022-09-09T14:32:34;95164.91;;;41.58;19.44
42007;BME280;27696;42.704;23.304;2022-09-09T14:35:00;95175.22;;;42.09;18.88
42007;BME280;27696;42.704;23.304;2022-09-09T14:37:27;95176.22;;;42.30;19.10
42007;BME280;27696;42.704;23.304;2022-09-09T14:39:52;95164.84;;;41.56;19.90
42007;BME280;27696;42.704;23.304;2022-09-09T14:42:19;95161.84;;;41.26;20.59
42007;BME280;27696;42.704;23.304;2022-09-09T14:44:44;95174.19;;;41.88;20.27
42007;BME280;27696;42.704;23.304;2022-09-09T14:47:10;95177.25;;;41.79;19.99
42007;BME280;27696;42.704;23.304;2022-09-09T14:49:35;95172.91;;;41.08;20.87
42007;BME280;27696;42.704;23.304;2022-09-09T14:52:02;95160.31;;;40.31;21.45
42007;BME280;27696;42.704;23.304;2022-09-09T14:54:28;95179.66;;;40.51;21.17
42007;BME280;27696;42.704;23.304;2022-09-09T14:56:54;95176.97;;;40.79;21.20
42007;BME280;27696;42.704;23.304;2022-09-09T14:59:19;95171.81;;;41.41;20.62
42007;BME280;27696;42.704;23.304;2022-09-09T15:01:45;95176.81;;;40.25;21.62
42007;BME280;27696;42.704;23.304;2022-09-09T15:04:12;95184.28;;;40.32;21.39
42007;BME280;27696;42.704;23.304;2022-09-09T15:06:39;95193.72;;;40.25;21.36
42007;BME280;27696;42.704;23.304;2022-09-09T15:09:06;95192.97;;;40.62;21.03
42007;BME280;27696;42.704;23.304;2022-09-09T15:11:35;95187.47;;;41.86;19.80
42007;BME280;27696;42.704;23.304;2022-09-09T15:14:08;95192.47;;;41.45;20.76
42007;BME280;27696;42.704;23.304;2022-09-09T15:16:35;95190.19;;;41.98;20.12
42007;BME280;27696;42.704;23.304;2022-09-09T15:19:04;95192.38;;;41.57;20.58
42007;BME280;27696;42.704;23.304;2022-09-09T15:21:32;95194.38;;;40.75;20.88
42007;BME280;27696;42.704;23.304;2022-09-09T15:23:58;95182.16;;;40.70;21.33
42007;BME280;27696;42.704;23.304;2022-09-09T15:26:24;95196.94;;;40.97;20.78
42007;BME280;27696;42.704;23.304;2022-09-09T15:28:51;95178.03;;;42.09;19.66
42007;BME280;27696;42.704;23.304;2022-09-09T15:31:21;95188.53;;;41.51;20.49
42007;BME280;27696;42.704;23.304;2022-09-09T15:33:52;95192.28;;;41.55;19.58